createdAt,value
2022-10-09T00:01:20.871Z,3.03
2022-10-09T00:03:50.977Z,7.20
2022-10-09T00:06:22.553Z,4.33
2022-10-09T00:08:51.073Z,4.47
2022-10-09T00:11:21.525Z,2.73
2022-10-09T00:13:49.876Z,6.40
2022-10-09T00:16:19.366Z,6.77
2022-10-09T00:18:47.652Z,5.10
2022-10-09T00:21:23.061Z,2.63
2022-10-09T00:23:51.968Z,3.33
2022-10-09T00:26:21.048Z,3.27
2022-10-09T00:28:49.234Z,2.77
2022-10-09T00:31:17.763Z,5.57
2022-10-09T00:33:45.991Z,7.13
2022-10-09T00:36:15.784Z,5.87
2022-10-09T00:38:45.250Z,5.37
2022-10-09T00:41:17.232Z,6.60
2022-10-09T00:43:48.384Z,5.97
2022-10-09T00:46:29.691Z,6.67
2022-10-09T00:49:06.730Z,8.13
2022-10-09T00:51:36.022Z,6.70
2022-10-09T00:54:09.897Z,5.67
2022-10-09T00:56:37.946Z,9.37
2022-10-09T00:59:06.944Z,8.47
2022-10-09T01:01:34.968Z,8.60
2022-10-09T01:04:02.976Z,10.93
2022-10-09T01:06:41.738Z,9.27
2022-10-09T01:09:16.363Z,9.43
2022-10-09T01:11:51.763Z,8.10
2022-10-09T01:14:27.038Z,6.43
2022-10-09T01:17:02.796Z,7.30
2022-10-09T01:20:04.917Z,6.03
2022-10-09T01:22:46.431Z,6.03
2022-10-09T01:25:24.781Z,4.43
2022-10-09T01:27:55.228Z,6.67
2022-10-09T01:30:23.424Z,6.57
2022-10-09T01:32:53.075Z,5.53
2022-10-09T01:35:22.657Z,11.57
2022-10-09T01:37:54.207Z,5.93
2022-10-09T01:40:24.706Z,8.80
2022-10-09T01:42:54.512Z,7.00
2022-10-09T01:45:22.702Z,10.90
2022-10-09T01:47:50.755Z,11.33
2022-10-09T01:50:24.527Z,9.53
2022-10-09T01:52:56.754Z,7.17
2022-10-09T01:55:37.688Z,10.17
2022-10-09T01:58:11.954Z,8.80
2022-10-09T02:00:46.384Z,8.87
2022-10-09T02:03:17.102Z,12.97
2022-10-09T02:05:48.772Z,8.17
2022-10-09T02:08:20.086Z,10.03
2022-10-09T02:10:51.711Z,7.60
2022-10-09T02:13:21.499Z,9.30
2022-10-09T02:15:53.504Z,9.97
2022-10-09T02:18:26.819Z,7.87
2022-10-09T02:21:00.446Z,10.33
2022-10-09T02:23:29.963Z,7.50
2022-10-09T02:25:58.486Z,11.20
2022-10-09T02:28:28.286Z,9.17
2022-10-09T02:31:02.505Z,9.03
2022-10-09T02:33:33.348Z,7.60
2022-10-09T02:36:02.181Z,8.10
2022-10-09T02:38:30.510Z,8.23
2022-10-09T02:41:00.005Z,10.17
2022-10-09T02:43:29.986Z,11.83
2022-10-09T02:45:58.206Z,11.27
2022-10-09T02:48:26.208Z,9.73
2022-10-09T02:50:54.138Z,10.27
2022-10-09T02:53:22.114Z,9.70
2022-10-09T02:55:50.052Z,8.47
2022-10-09T02:58:18.094Z,10.53
2022-10-09T03:00:50.941Z,9.03
2022-10-09T03:03:19.266Z,8.87
2022-10-09T03:05:47.513Z,7.03
2022-10-09T03:08:16.090Z,10.53
2022-10-09T03:10:44.070Z,10.17
2022-10-09T03:13:12.006Z,10.73
2022-10-09T03:15:40.093Z,10.13
2022-10-09T03:18:09.510Z,7.50
2022-10-09T03:20:38.549Z,10.37
2022-10-09T03:23:06.481Z,11.60
2022-10-09T03:25:34.419Z,11.27
2022-10-09T03:28:02.516Z,10.40
2022-10-09T03:30:30.511Z,8.10
2022-10-09T03:32:58.410Z,7.77
2022-10-09T03:35:27.772Z,9.53
2022-10-09T03:37:55.692Z,9.37
2022-10-09T03:40:23.594Z,8.23
2022-10-09T03:42:51.711Z,9.27
2022-10-09T03:45:19.933Z,10.20
2022-10-09T03:47:47.865Z,8.10
2022-10-09T03:50:15.963Z,6.03
2022-10-09T03:52:45.368Z,6.23
2022-10-09T03:55:13.397Z,7.30
2022-10-09T03:57:41.342Z,7.07
2022-10-09T04:00:11.078Z,12.73
2022-10-09T04:02:39.093Z,7.13
2022-10-09T04:05:08.207Z,4.97
2022-10-09T04:07:36.214Z,8.47
2022-10-09T04:10:06.457Z,9.10
2022-10-09T04:12:34.475Z,8.73
2022-10-09T04:15:02.744Z,8.23
2022-10-09T04:17:30.977Z,10.17
2022-10-09T04:19:58.909Z,7.97
2022-10-09T04:22:26.914Z,8.43
2022-10-09T04:24:54.960Z,7.07
2022-10-09T04:27:24.416Z,7.67
2022-10-09T04:29:52.404Z,6.77
2022-10-09T04:32:20.385Z,10.90
2022-10-09T04:34:48.443Z,7.80
2022-10-09T04:37:16.445Z,7.97
2022-10-09T04:39:44.405Z,8.67
2022-10-09T04:42:12.352Z,7.47
2022-10-09T04:44:41.688Z,7.27
2022-10-09T04:47:11.396Z,11.50
2022-10-09T04:49:39.788Z,6.77
2022-10-09T04:55:29.496Z,9.50
2022-10-09T04:57:57.368Z,6.07
2022-10-09T05:00:25.371Z,6.37
2022-10-09T05:02:53.309Z,7.87
2022-10-09T05:05:21.301Z,7.90
2022-10-09T05:07:49.355Z,9.83
2022-10-09T05:10:17.346Z,9.90
2022-10-09T05:12:46.977Z,9.63
2022-10-09T05:15:15.174Z,11.93
2022-10-09T05:17:43.273Z,8.80
2022-10-09T05:20:11.574Z,12.77
2022-10-09T05:22:39.492Z,9.00
2022-10-09T05:25:08.847Z,8.63
2022-10-09T05:27:36.921Z,11.03
2022-10-09T05:30:07.786Z,8.90
2022-10-09T05:32:35.979Z,10.97
2022-10-09T05:35:04.388Z,9.07
2022-10-09T05:37:32.450Z,8.40
2022-10-09T05:40:00.474Z,10.43
2022-10-09T05:42:28.351Z,7.77
2022-10-09T05:44:56.359Z,7.60
2022-10-09T05:47:25.746Z,7.27
2022-10-09T05:49:53.646Z,6.77
2022-10-09T05:52:21.850Z,7.03
2022-10-09T05:54:50.810Z,10.23
2022-10-09T05:57:18.798Z,8.43
2022-10-09T05:59:46.761Z,6.93
2022-10-09T06:02:14.828Z,9.43
2022-10-09T06:04:44.194Z,4.93
2022-10-09T06:07:12.361Z,7.30
2022-10-09T06:09:40.418Z,5.87
2022-10-09T06:12:08.370Z,3.73
2022-10-09T06:14:36.305Z,4.77
2022-10-09T06:17:04.324Z,10.60
2022-10-09T06:19:32.345Z,4.30
2022-10-09T06:22:01.802Z,6.83
2022-10-09T06:24:29.848Z,4.07
2022-10-09T06:26:58.008Z,6.63
2022-10-09T06:29:26.039Z,5.43
2022-10-09T06:31:54.163Z,6.47
2022-10-09T06:34:22.156Z,5.17
2022-10-09T06:36:50.493Z,6.67
2022-10-09T06:39:19.954Z,5.80
2022-10-09T06:41:47.949Z,8.07
2022-10-09T06:44:17.331Z,5.07
2022-10-09T06:46:47.060Z,9.17
2022-10-09T06:49:15.110Z,5.33
2022-10-09T06:51:43.039Z,6.97
2022-10-09T06:54:14.264Z,4.33
2022-10-09T06:56:43.631Z,5.37
2022-10-09T06:59:12.496Z,4.57
2022-10-09T07:01:40.891Z,5.80
2022-10-09T07:04:12.136Z,6.13
2022-10-09T07:06:42.158Z,3.93
2022-10-09T07:09:12.196Z,4.67
2022-10-09T07:11:43.055Z,12.03
2022-10-09T07:14:13.852Z,10.53
2022-10-09T07:16:43.402Z,7.73
2022-10-09T07:19:12.640Z,7.83
2022-10-09T07:21:42.036Z,8.63
2022-10-09T07:24:11.254Z,4.50
2022-10-09T07:26:41.747Z,7.20
2022-10-09T07:29:12.995Z,9.33
2022-10-09T07:31:40.953Z,4.00
2022-10-09T07:34:09.331Z,9.43
2022-10-09T07:36:37.784Z,8.97
2022-10-09T07:39:06.317Z,4.30
2022-10-09T07:41:34.569Z,6.47
2022-10-09T07:44:02.594Z,6.20
2022-10-09T07:46:34.051Z,4.20
2022-10-09T07:49:02.381Z,6.80
2022-10-09T07:51:31.497Z,8.63
2022-10-09T07:54:02.055Z,5.20
2022-10-09T07:56:32.380Z,4.93
2022-10-09T07:59:02.013Z,5.77
2022-10-09T08:01:32.779Z,4.63
2022-10-09T08:04:01.994Z,5.57
2022-10-09T08:06:30.509Z,9.03
2022-10-09T08:09:01.663Z,3.90
2022-10-09T08:11:30.858Z,3.87
2022-10-09T08:13:59.123Z,8.53
2022-10-09T08:16:28.616Z,4.57
2022-10-09T08:19:00.003Z,5.97
2022-10-09T08:21:29.101Z,6.87
2022-10-09T08:23:58.871Z,9.03
2022-10-09T08:26:28.591Z,8.00
2022-10-09T08:29:00.818Z,5.57
2022-10-09T08:31:30.257Z,4.43
2022-10-09T08:34:01.219Z,5.90
2022-10-09T08:36:29.998Z,7.37
2022-10-09T08:38:58.235Z,4.40
2022-10-09T08:41:42.105Z,2.97
2022-10-09T08:44:17.651Z,6.77
2022-10-09T08:46:53.866Z,7.63
2022-10-09T08:49:28.279Z,6.17
2022-10-09T08:52:01.051Z,9.33
2022-10-09T08:54:35.450Z,3.13
2022-10-09T08:57:05.867Z,4.60
2022-10-09T08:59:33.861Z,8.60
2022-10-09T09:02:08.646Z,7.00
2022-10-09T09:04:54.730Z,7.20
2022-10-09T09:07:30.946Z,9.73
2022-10-09T09:10:05.090Z,14.40
2022-10-09T09:12:38.670Z,18.33
2022-10-09T09:15:23.124Z,17.23
2022-10-09T09:17:58.161Z,4.90
2022-10-09T09:20:31.972Z,12.37
2022-10-09T09:23:02.902Z,7.67
2022-10-09T09:25:35.806Z,9.20
2022-10-09T09:28:14.918Z,10.33
2022-10-09T09:30:47.481Z,7.60
2022-10-09T09:33:23.298Z,12.03
2022-10-09T09:35:59.826Z,5.13
2022-10-09T09:38:27.889Z,9.07
2022-10-09T09:40:56.046Z,4.97
2022-10-09T09:43:26.810Z,3.47
2022-10-09T09:45:55.887Z,5.87
2022-10-09T09:48:33.230Z,4.73
2022-10-09T09:51:27.460Z,6.63
2022-10-09T09:53:54.161Z,4.83
2022-10-09T09:56:22.213Z,4.57
2022-10-09T09:58:53.169Z,7.03
2022-10-09T10:01:24.856Z,7.97
2022-10-09T10:03:55.128Z,5.57
2022-10-09T10:06:29.413Z,5.40
2022-10-09T10:09:03.023Z,5.10
2022-10-09T10:11:32.646Z,6.40
2022-10-09T10:14:07.781Z,7.00
2022-10-09T10:16:38.440Z,3.57
2022-10-09T10:19:07.150Z,4.43
2022-10-09T10:21:47.873Z,5.20
2022-10-09T10:24:23.882Z,6.07
2022-10-09T10:26:55.746Z,5.20
2022-10-09T10:29:30.324Z,4.43
2022-10-09T10:32:04.709Z,7.17
2022-10-09T10:34:38.610Z,3.37
2022-10-09T10:37:26.244Z,4.70
2022-10-09T10:40:00.563Z,3.50
2022-10-09T10:42:37.686Z,6.47
2022-10-09T10:45:12.424Z,3.67
2022-10-09T10:47:46.374Z,13.87
2022-10-09T10:50:16.577Z,4.73
2022-10-09T10:52:59.162Z,4.63
2022-10-09T10:55:39.509Z,5.03
2022-10-09T11:01:06.873Z,18.00
2022-10-09T11:03:47.007Z,8.13
2022-10-09T11:06:21.117Z,8.93
2022-10-09T11:09:00.824Z,3.23
2022-10-09T11:11:37.336Z,4.23
2022-10-09T11:14:19.942Z,2.87
2022-10-09T11:16:59.323Z,5.43
2022-10-09T11:19:52.101Z,4.53
2022-10-09T11:22:34.586Z,2.17
2022-10-09T11:25:15.556Z,6.67
2022-10-09T11:27:48.799Z,3.33
2022-10-09T11:30:19.418Z,4.30
2022-10-09T11:32:56.772Z,5.20
2022-10-09T11:35:27.923Z,4.43
2022-10-09T11:38:02.134Z,3.17
2022-10-09T11:40:34.877Z,5.77
2022-10-09T11:43:12.482Z,8.07
2022-10-09T11:45:48.011Z,3.83
2022-10-09T11:48:23.162Z,7.17
2022-10-09T11:50:59.769Z,2.10
2022-10-09T11:53:31.150Z,6.40
2022-10-09T11:56:09.030Z,5.33
2022-10-09T11:58:37.162Z,2.33
2022-10-09T12:01:24.143Z,3.33
2022-10-09T12:04:01.986Z,4.67
2022-10-09T12:06:30.842Z,3.47
2022-10-09T12:09:01.565Z,1.80
2022-10-09T12:11:31.578Z,3.77
2022-10-09T12:14:01.970Z,4.13
2022-10-09T12:16:39.416Z,2.23
2022-10-09T12:19:17.079Z,3.63
2022-10-09T12:21:54.022Z,3.63
2022-10-09T12:24:25.158Z,6.20
2022-10-09T12:26:57.388Z,4.77
2022-10-09T12:29:29.424Z,4.60
2022-10-09T12:32:02.838Z,4.30
2022-10-09T12:34:34.764Z,4.50
2022-10-09T12:37:21.161Z,2.23
2022-10-09T12:39:50.680Z,4.15
2022-10-09T12:42:24.062Z,3.15
2022-10-09T12:44:55.225Z,2.17
2022-10-09T12:47:26.753Z,1.23
2022-10-09T12:49:59.578Z,5.07
2022-10-09T12:52:28.043Z,2.07
2022-10-09T12:54:56.304Z,2.55
2022-10-09T12:57:28.015Z,1.67
2022-10-09T12:59:56.639Z,3.17
2022-10-09T13:02:24.804Z,4.35
2022-10-09T13:04:59.073Z,2.92
2022-10-09T13:07:29.163Z,1.13
2022-10-09T13:10:03.155Z,3.80
2022-10-09T13:12:33.428Z,1.43
2022-10-09T13:15:02.952Z,1.75
2022-10-09T13:17:34.809Z,2.00
2022-10-09T13:20:05.407Z,2.70
2022-10-09T13:22:35.956Z,4.70
2022-10-09T13:25:04.967Z,2.70
2022-10-09T13:27:38.985Z,3.03
2022-10-09T13:30:08.452Z,1.42
2022-10-09T13:32:36.422Z,3.22
2022-10-09T13:35:05.080Z,3.65
2022-10-09T13:37:33.088Z,3.35
2022-10-09T13:40:01.866Z,3.05
2022-10-09T13:42:36.635Z,2.85
2022-10-09T13:45:04.900Z,3.85
2022-10-09T13:47:33.238Z,3.17
2022-10-09T13:50:01.300Z,2.55
2022-10-09T13:52:29.288Z,4.90
2022-10-09T13:54:57.319Z,2.70
2022-10-09T13:57:25.358Z,7.80
2022-10-09T13:59:55.857Z,5.40
2022-10-09T14:02:23.813Z,4.05
2022-10-09T14:04:51.703Z,2.53
2022-10-09T14:07:19.756Z,4.00
2022-10-09T14:09:47.788Z,4.68
2022-10-09T14:12:15.798Z,4.25
2022-10-09T14:14:43.766Z,3.83
2022-10-09T14:17:13.070Z,4.22
2022-10-09T14:19:41.131Z,4.55
2022-10-09T14:22:09.106Z,3.33
2022-10-09T14:24:37.722Z,3.50
2022-10-09T14:27:05.811Z,2.22
2022-10-09T14:29:33.990Z,5.55
2022-10-09T14:32:01.938Z,2.10
2022-10-09T14:34:31.342Z,3.38
2022-10-09T14:36:59.366Z,4.38
2022-10-09T14:39:27.429Z,3.03
2022-10-09T14:41:55.370Z,4.88
2022-10-09T14:44:23.417Z,2.78
2022-10-09T14:46:51.357Z,1.40
2022-10-09T14:49:19.562Z,3.37
2022-10-09T14:51:49.074Z,4.93
2022-10-09T14:54:17.097Z,2.38
2022-10-09T14:56:45.106Z,3.60
2022-10-09T14:59:13.562Z,6.53
2022-10-09T15:01:41.474Z,3.73
2022-10-09T15:04:09.478Z,1.97
2022-10-09T15:06:37.530Z,4.23
2022-10-09T15:09:06.896Z,5.93
2022-10-09T15:11:36.399Z,3.57
2022-10-09T15:14:05.354Z,5.20
2022-10-09T15:16:33.269Z,9.40
2022-10-09T15:19:01.397Z,6.70
2022-10-09T15:21:32.145Z,5.53
2022-10-09T15:24:01.522Z,4.20
2022-10-09T15:26:33.289Z,8.07
2022-10-09T15:29:03.062Z,4.70
2022-10-09T15:31:32.740Z,5.23
2022-10-09T15:34:02.265Z,17.37
2022-10-09T15:36:32.256Z,20.23
2022-10-09T15:39:02.963Z,29.73
2022-10-09T15:41:34.201Z,13.13
2022-10-09T15:44:04.436Z,18.40
2022-10-09T15:46:32.866Z,14.93
2022-10-09T15:49:00.777Z,18.87
2022-10-09T15:51:30.058Z,28.73
2022-10-09T15:54:00.617Z,16.13
2022-10-09T15:56:29.542Z,15.13
2022-10-09T15:58:59.474Z,8.00
2022-10-09T16:01:27.797Z,25.67
2022-10-09T16:03:55.996Z,25.60
2022-10-09T16:06:24.849Z,24.07
2022-10-09T16:08:56.642Z,17.07
2022-10-09T16:11:26.599Z,12.27
2022-10-09T16:13:55.595Z,15.37
2022-10-09T16:16:27.445Z,16.73
2022-10-09T16:18:56.257Z,13.40
2022-10-09T16:21:25.233Z,9.50
2022-10-09T16:23:58.088Z,9.43
2022-10-09T16:26:27.971Z,9.90
2022-10-09T16:28:56.040Z,7.77
2022-10-09T16:31:28.117Z,9.33
2022-10-09T16:33:56.109Z,10.67
2022-10-09T16:36:24.049Z,10.13
2022-10-09T16:38:52.103Z,10.03
2022-10-09T16:41:21.452Z,8.07
2022-10-09T16:43:51.079Z,12.90
2022-10-09T16:46:21.803Z,10.07
2022-10-09T16:48:51.680Z,11.37
2022-10-09T16:51:21.940Z,11.90
2022-10-09T16:53:51.385Z,21.90
2022-10-09T16:56:21.099Z,24.20
2022-10-09T16:58:49.812Z,13.00
2022-10-09T17:01:17.802Z,20.97
2022-10-09T17:03:46.307Z,30.63
2022-10-09T17:06:20.344Z,20.93
2022-10-09T17:08:48.852Z,18.77
2022-10-09T17:11:18.136Z,33.57
2022-10-09T17:13:46.812Z,47.50
2022-10-09T17:16:18.598Z,59.40
2022-10-09T17:18:47.236Z,79.17
2022-10-09T17:21:18.305Z,61.23
2022-10-09T17:23:46.751Z,59.60
2022-10-09T17:26:16.803Z,22.23
2022-10-09T17:28:45.568Z,36.33
2022-10-09T17:31:16.945Z,40.73
2022-10-09T17:33:46.334Z,43.40
2022-10-09T17:36:17.556Z,41.23
2022-10-09T17:38:46.477Z,38.13
2022-10-09T17:41:16.164Z,37.63
2022-10-09T17:43:44.188Z,69.73
2022-10-09T17:46:14.141Z,79.67
2022-10-09T17:48:45.004Z,44.27
2022-10-09T17:51:17.756Z,46.73
2022-10-09T17:53:46.386Z,50.50
2022-10-09T17:56:14.668Z,49.53
2022-10-09T17:58:44.328Z,51.70
2022-10-09T18:01:14.338Z,38.13
2022-10-09T18:03:43.004Z,45.20
2022-10-09T18:06:13.231Z,45.97
2022-10-09T18:08:42.996Z,39.60
2022-10-09T18:11:14.621Z,39.47
2022-10-09T18:13:43.432Z,42.80
2022-10-09T18:16:14.135Z,57.63
2022-10-09T18:18:42.349Z,20.60
2022-10-09T18:21:13.817Z,17.60
2022-10-09T18:23:43.124Z,18.30
2022-10-09T18:26:12.944Z,22.17
2022-10-09T18:28:42.630Z,37.00
2022-10-09T18:31:14.681Z,32.07
2022-10-09T18:33:43.048Z,33.40
2022-10-09T18:36:18.161Z,23.80
2022-10-09T18:38:47.979Z,19.07
2022-10-09T18:41:16.293Z,28.23
2022-10-09T18:43:44.279Z,24.03
2022-10-09T18:46:12.455Z,21.60
2022-10-09T18:48:42.463Z,30.43
2022-10-09T18:51:14.553Z,26.47
2022-10-09T18:53:44.531Z,24.07
2022-10-09T18:56:14.695Z,26.47
2022-10-09T18:58:43.142Z,28.23
2022-10-09T19:01:11.130Z,26.57
2022-10-09T19:03:39.052Z,25.23
2022-10-09T19:06:07.705Z,27.23
2022-10-09T19:08:36.366Z,26.77
2022-10-09T19:11:04.338Z,24.87
2022-10-09T19:13:33.713Z,26.47
2022-10-09T19:16:04.590Z,25.97
2022-10-09T19:18:34.618Z,26.90
2022-10-09T19:21:03.256Z,24.60
2022-10-09T19:23:31.303Z,29.03
2022-10-09T19:26:00.528Z,25.27
2022-10-09T19:28:32.746Z,26.20
2022-10-09T19:31:05.365Z,28.40
2022-10-09T19:33:33.632Z,28.23
2022-10-09T19:36:01.640Z,20.97
2022-10-09T19:38:29.905Z,20.73
2022-10-09T19:41:03.186Z,24.80
2022-10-09T19:43:31.810Z,30.53
2022-10-09T19:46:06.608Z,27.77
2022-10-09T19:48:34.805Z,24.10
2022-10-09T19:51:07.090Z,23.03
2022-10-09T19:53:35.678Z,24.53
2022-10-09T19:56:03.900Z,27.33
2022-10-09T19:58:31.812Z,30.60
2022-10-09T20:01:00.222Z,25.10
2022-10-09T20:03:29.885Z,25.67
2022-10-09T20:06:01.662Z,32.67
2022-10-09T20:08:29.668Z,27.67
2022-10-09T20:10:59.788Z,34.13
2022-10-09T20:13:27.808Z,32.00
2022-10-09T20:15:56.168Z,30.40
2022-10-09T20:18:24.152Z,26.10
2022-10-09T20:20:53.489Z,32.00
2022-10-09T20:23:21.504Z,28.07
2022-10-09T20:25:49.492Z,31.40
2022-10-09T20:28:17.622Z,28.57
2022-10-09T20:30:45.612Z,28.93
2022-10-09T20:33:13.621Z,29.37
2022-10-09T20:35:44.628Z,23.60
2022-10-09T20:38:14.377Z,23.77
2022-10-09T20:40:42.411Z,19.53
2022-10-09T20:43:10.428Z,27.27
2022-10-09T20:45:41.076Z,25.23
2022-10-09T20:48:09.427Z,20.77
2022-10-09T20:50:38.411Z,17.87
2022-10-09T20:53:07.417Z,25.37
2022-10-09T20:55:37.289Z,23.97
2022-10-09T20:58:05.575Z,23.10
2022-10-09T21:00:33.485Z,22.00
2022-10-09T21:03:01.484Z,18.80
2022-10-09T21:05:29.396Z,24.17
2022-10-09T21:07:57.352Z,22.97
2022-10-09T21:10:25.287Z,26.37
2022-10-09T21:12:54.627Z,19.87
2022-10-09T21:15:22.972Z,23.33
2022-10-09T21:17:50.894Z,22.30
2022-10-09T21:20:19.183Z,21.40
2022-10-09T21:22:47.296Z,31.27
2022-10-09T21:25:15.451Z,29.50
2022-10-09T21:27:43.414Z,22.83
2022-10-09T21:30:14.631Z,23.60
2022-10-09T21:32:44.816Z,19.57
2022-10-09T21:35:12.762Z,22.97
2022-10-09T21:37:40.727Z,24.00
2022-10-09T21:40:09.349Z,24.17
2022-10-09T21:42:37.284Z,21.70
2022-10-09T21:45:05.767Z,19.57
2022-10-09T21:47:35.070Z,22.30
2022-10-09T21:50:03.041Z,21.33
2022-10-09T21:52:31.040Z,22.50
2022-10-09T21:54:59.089Z,21.80
2022-10-09T21:57:27.401Z,22.57
2022-10-09T21:59:55.691Z,20.23
2022-10-09T22:02:23.673Z,18.90
2022-10-09T22:04:57.131Z,23.70
2022-10-09T22:07:27.030Z,21.27
2022-10-09T22:09:55.696Z,20.33
2022-10-09T22:12:23.785Z,20.73
2022-10-09T22:14:52.149Z,17.73
2022-10-09T22:17:20.300Z,22.10
2022-10-09T22:19:48.981Z,22.23
2022-10-09T22:22:18.353Z,23.67
2022-10-09T22:24:46.477Z,19.03
2022-10-09T22:27:14.421Z,25.60
2022-10-09T22:29:42.359Z,38.73
2022-10-09T22:32:10.634Z,37.33
2022-10-09T22:34:39.169Z,26.57
2022-10-09T22:37:07.269Z,24.67
2022-10-09T22:39:36.593Z,22.03
2022-10-09T22:42:04.677Z,26.40
2022-10-09T22:44:32.641Z,23.87
2022-10-09T22:47:00.606Z,27.20
2022-10-09T22:49:28.601Z,22.27
2022-10-09T22:51:57.008Z,24.70
2022-10-09T22:54:25.023Z,22.33
2022-10-09T22:56:54.441Z,20.73
2022-10-09T22:59:22.397Z,27.37
2022-10-09T23:01:53.373Z,24.70
2022-10-09T23:04:23.246Z,22.97
2022-10-09T23:06:52.621Z,19.77
2022-10-09T23:09:21.108Z,21.63
2022-10-09T23:11:49.268Z,26.03
2022-10-09T23:14:18.885Z,20.87
2022-10-09T23:16:46.887Z,19.90
2022-10-09T23:19:15.002Z,21.80
2022-10-09T23:21:44.075Z,30.77
2022-10-09T23:24:15.282Z,34.93
2022-10-09T23:26:43.259Z,21.90
2022-10-09T23:29:16.048Z,39.00
2022-10-09T23:31:45.632Z,21.93
2022-10-09T23:34:14.079Z,22.77
2022-10-09T23:36:42.188Z,25.40
2022-10-09T23:39:10.576Z,24.10
2022-10-09T23:41:39.372Z,19.63
2022-10-09T23:44:07.256Z,25.27
2022-10-09T23:46:37.534Z,26.13
2022-10-09T23:49:07.101Z,27.47
2022-10-09T23:51:35.132Z,21.83
2022-10-09T23:54:03.168Z,25.47
2022-10-09T23:56:33.063Z,25.10
2022-10-09T23:59:02.963Z,23.47
